TNCA/AUA METAR and TAF weather

Enter ICAO airport designator
Station Type Date Time Source
TNCA METAR 2021/09/23 17:00 UTC NOAA

TNCA 231700Z 09017KT 060V120 9999 FEW024 34/24 Q1010 NOSIG


Station Type Date Time Source
TNCA Decoded METAR 2021/09/23 17:00 UTC NOAA

Queen Beatrix Airport, Aruba (TNCA) 12-30N 070-01W 33M
Sep 23, 2021 - 01:00 PM EDT / 2021.09.23 1700 UTC
Wind: from the E (090 degrees) at 20 MPH (17 KT) (direction variable):0
Visibility: greater than 7 mile(s):0
Sky conditions: mostly clear
Temperature: 93 F (34 C)
Heat index: 104.5 F (40.3 C):1
Dew Point: 75 F (24 C)
Relative Humidity: 56%
Pressure (altimeter): 29.83 in. Hg (1010 hPa)
ob: TNCA 231700Z 09017KT 060V120 9999 FEW024 34/24 Q1010 NOSIG
cycle: 17

Station Type Date Time Source
TNCA TAF 2021/09/23 18:09 UTC NOAA

TAF TAF TNCA 231715Z 2318/2418 11015KT 9999 SCT022

Example: see airport list